createdAt,value
2022-11-30T00:00:56.324Z,52.30
2022-11-30T00:03:34.032Z,38.60
2022-11-30T00:09:13.509Z,37.50
2022-11-30T00:11:41.004Z,35.97
2022-11-30T00:14:08.244Z,40.35
2022-11-30T00:16:35.925Z,45.10
2022-11-30T00:19:02.779Z,39.60
2022-11-30T00:21:29.618Z,41.75
2022-11-30T00:23:56.407Z,37.38
2022-11-30T00:29:59.293Z,39.90
2022-11-30T00:32:27.706Z,34.92
2022-11-30T00:40:08.798Z,35.47
2022-11-30T00:48:06.465Z,37.63
2022-11-30T00:50:40.220Z,40.40
2022-11-30T00:53:07.301Z,38.22
2022-11-30T00:58:47.261Z,36.75
2022-11-30T01:01:14.247Z,37.95
2022-11-30T01:03:41.257Z,35.75
2022-11-30T01:06:09.593Z,36.90
2022-11-30T01:14:07.348Z,38.00
2022-11-30T01:16:34.322Z,34.55
2022-11-30T01:21:36.875Z,32.72
2022-11-30T01:24:04.473Z,36.75
2022-11-30T01:26:32.095Z,37.20
2022-11-30T01:28:59.401Z,44.55
2022-11-30T01:31:26.333Z,36.28
2022-11-30T01:33:55.797Z,34.42
2022-11-30T01:36:27.804Z,43.22
2022-11-30T01:38:57.512Z,33.75
2022-11-30T01:41:30.328Z,37.65
2022-11-30T01:44:05.732Z,39.78
2022-11-30T01:49:11.338Z,32.38
2022-11-30T01:51:49.985Z,35.85
2022-11-30T01:54:22.031Z,38.70
2022-11-30T01:57:04.150Z,39.00
2022-11-30T01:59:31.753Z,36.47
2022-11-30T02:01:59.099Z,33.25
2022-11-30T02:07:04.778Z,38.97
2022-11-30T02:09:35.862Z,45.00
2022-11-30T02:21:26.323Z,29.63
2022-11-30T02:26:56.941Z,37.08
2022-11-30T02:29:30.197Z,41.83
2022-11-30T02:34:48.357Z,32.78
2022-11-30T02:40:20.192Z,35.03
2022-11-30T02:42:49.477Z,38.38
2022-11-30T02:51:44.235Z,38.30
2022-11-30T02:56:47.462Z,43.92
2022-11-30T02:59:21.814Z,44.28
2022-11-30T03:01:49.063Z,43.55
2022-11-30T03:06:57.737Z,40.33
2022-11-30T03:09:24.820Z,41.83
2022-11-30T03:14:27.272Z,47.05
2022-11-30T03:19:29.669Z,42.72
2022-11-30T03:21:56.581Z,42.92
2022-11-30T03:26:58.815Z,36.08
2022-11-30T03:29:25.715Z,34.80
2022-11-30T03:31:52.469Z,47.92
2022-11-30T03:41:07.222Z,39.80
2022-11-30T03:46:47.309Z,44.17
2022-11-30T03:49:14.365Z,39.40
2022-11-30T04:00:44.669Z,31.98
2022-11-30T04:03:11.678Z,42.72
2022-11-30T04:05:39.100Z,46.58
2022-11-30T04:08:06.058Z,51.53
2022-11-30T04:10:32.931Z,44.97
2022-11-30T04:16:12.414Z,49.88
2022-11-30T04:18:49.784Z,40.20
2022-11-30T04:28:07.681Z,49.22
2022-11-30T04:30:36.323Z,47.35
2022-11-30T04:33:03.740Z,54.33
2022-11-30T04:38:05.788Z,49.40
2022-11-30T04:40:39.716Z,44.58
2022-11-30T04:46:14.759Z,37.63
2022-11-30T04:51:41.252Z,45.28
2022-11-30T04:54:08.118Z,41.22
2022-11-30T04:59:29.205Z,43.03
2022-11-30T05:04:31.790Z,45.55
2022-11-30T05:09:48.325Z,46.03
2022-11-30T05:12:15.231Z,47.67
2022-11-30T05:26:01.665Z,47.13
2022-11-30T05:28:28.457Z,54.03
2022-11-30T05:30:55.724Z,41.85
2022-11-30T05:33:22.853Z,42.95
2022-11-30T05:35:49.982Z,44.13
2022-11-30T05:40:59.082Z,45.05
2022-11-30T05:43:27.181Z,37.42
2022-11-30T05:49:06.765Z,37.55
2022-11-30T05:54:22.630Z,38.83
2022-11-30T05:56:54.418Z,38.60
2022-11-30T05:59:22.398Z,36.65
2022-11-30T06:01:51.455Z,33.10
2022-11-30T06:09:39.980Z,38.42
2022-11-30T06:12:23.632Z,37.90
2022-11-30T06:14:51.228Z,29.55
2022-11-30T06:17:18.039Z,41.60
2022-11-30T06:39:02.563Z,34.45
2022-11-30T06:44:32.281Z,35.80
2022-11-30T06:46:59.632Z,34.40
2022-11-30T06:49:26.489Z,39.65
2022-11-30T06:51:53.302Z,36.35
2022-11-30T06:54:27.384Z,24.65
2022-11-30T06:57:25.717Z,21.23
2022-11-30T06:59:52.926Z,27.95
2022-11-30T07:02:20.276Z,23.55
2022-11-30T07:04:47.704Z,24.40
2022-11-30T07:07:14.771Z,25.67
2022-11-30T07:09:41.742Z,23.95
2022-11-30T07:12:08.935Z,24.55
2022-11-30T07:14:36.041Z,24.63
2022-11-30T07:19:47.263Z,25.63
2022-11-30T07:22:14.716Z,25.75
2022-11-30T07:27:30.232Z,26.17
2022-11-30T07:30:10.429Z,28.85
2022-11-30T07:32:37.178Z,24.38
2022-11-30T07:35:04.170Z,24.77
2022-11-30T07:37:31.449Z,20.92
2022-11-30T07:40:06.055Z,22.65
2022-11-30T07:42:33.910Z,22.88
2022-11-30T07:45:01.121Z,26.45
2022-11-30T07:47:28.040Z,22.30
2022-11-30T07:49:54.804Z,22.92
2022-11-30T07:52:22.294Z,25.67
2022-11-30T07:57:34.422Z,22.30
2022-11-30T08:00:01.718Z,25.45
2022-11-30T08:02:28.956Z,27.08
2022-11-30T08:10:17.473Z,34.60
2022-11-30T08:12:48.734Z,27.98
2022-11-30T08:15:20.979Z,23.07
2022-11-30T08:21:03.794Z,29.63
2022-11-30T08:24:02.416Z,31.47
2022-11-30T08:27:03.676Z,25.85
2022-11-30T08:29:30.426Z,27.10
2022-11-30T08:32:29.169Z,29.10
2022-11-30T08:34:55.921Z,25.50
2022-11-30T08:40:34.823Z,44.50
2022-11-30T08:45:58.253Z,52.60
2022-11-30T08:48:31.798Z,41.30
2022-11-30T08:51:26.726Z,33.90
2022-11-30T08:57:12.366Z,27.02
2022-11-30T09:02:45.382Z,32.22
2022-11-30T09:05:12.527Z,86.72
2022-11-30T09:07:39.580Z,37.10
2022-11-30T09:10:12.778Z,26.30
2022-11-30T09:12:41.381Z,26.65
2022-11-30T09:15:09.891Z,23.40
2022-11-30T09:17:37.362Z,25.05
2022-11-30T09:20:20.221Z,22.23
2022-11-30T09:22:57.845Z,36.40
2022-11-30T09:25:24.642Z,24.27
2022-11-30T09:27:51.426Z,29.95
2022-11-30T09:30:33.967Z,29.60
2022-11-30T09:33:10.762Z,26.55
2022-11-30T09:35:37.999Z,27.13
2022-11-30T09:38:05.149Z,30.50
2022-11-30T09:40:35.828Z,29.55
2022-11-30T09:43:12.133Z,25.63
2022-11-30T09:45:42.684Z,23.98
2022-11-30T09:48:48.370Z,29.63
2022-11-30T09:54:36.959Z,27.20
2022-11-30T09:57:24.809Z,30.45
2022-11-30T10:00:00.452Z,27.13
2022-11-30T10:02:33.898Z,30.50
2022-11-30T10:14:08.067Z,35.47
2022-11-30T10:16:58.582Z,28.65
2022-11-30T10:19:25.811Z,32.05
2022-11-30T10:25:00.576Z,25.08
2022-11-30T10:27:48.015Z,24.15
2022-11-30T10:33:00.777Z,26.30
2022-11-30T10:35:48.661Z,24.27
2022-11-30T10:41:20.676Z,36.22
2022-11-30T10:44:50.065Z,35.55
2022-11-30T10:47:22.643Z,34.08
2022-11-30T10:52:51.958Z,34.85
2022-11-30T10:55:25.047Z,33.20
2022-11-30T10:58:02.707Z,32.15
2022-11-30T11:00:29.951Z,31.25
2022-11-30T11:02:57.265Z,29.58
2022-11-30T11:05:29.628Z,26.80
2022-11-30T11:08:06.744Z,30.38
2022-11-30T11:13:35.730Z,35.17
2022-11-30T11:16:03.585Z,31.40
2022-11-30T11:22:01.706Z,24.60
2022-11-30T11:24:28.762Z,31.80
2022-11-30T11:26:56.963Z,25.75
2022-11-30T11:29:33.635Z,27.85
2022-11-30T11:32:22.763Z,26.85
2022-11-30T11:34:51.480Z,27.00
2022-11-30T11:37:22.838Z,30.85
2022-11-30T11:42:53.133Z,33.10
2022-11-30T11:45:26.355Z,32.65
2022-11-30T11:48:02.501Z,27.70
2022-11-30T11:51:05.637Z,26.55
2022-11-30T11:53:44.846Z,31.35
2022-11-30T12:08:02.522Z,23.20
2022-11-30T12:10:52.648Z,25.95
2022-11-30T12:13:27.154Z,24.63
2022-11-30T12:16:05.156Z,29.05
2022-11-30T12:25:08.068Z,30.55
2022-11-30T12:27:54.064Z,29.25
2022-11-30T12:30:27.802Z,32.58
2022-11-30T12:39:44.970Z,30.60
2022-11-30T12:42:38.334Z,32.95
2022-11-30T12:45:17.275Z,28.45
2022-11-30T12:48:05.752Z,30.80
2022-11-30T12:53:22.668Z,36.10
2022-11-30T12:56:04.844Z,35.70
2022-11-30T12:58:48.013Z,43.10
2022-11-30T13:04:43.754Z,30.67
2022-11-30T13:10:19.109Z,29.00
2022-11-30T13:12:50.722Z,35.88
2022-11-30T13:15:21.969Z,37.38
2022-11-30T13:18:22.600Z,33.35
2022-11-30T13:30:43.376Z,32.70
2022-11-30T13:33:33.684Z,33.17
2022-11-30T13:36:03.733Z,41.95
2022-11-30T13:38:38.694Z,40.80
2022-11-30T13:41:14.817Z,38.72
2022-11-30T13:43:45.897Z,37.50
2022-11-30T13:46:20.091Z,35.92
2022-11-30T13:48:47.540Z,39.85
2022-11-30T13:51:34.826Z,35.03
2022-11-30T13:54:51.004Z,46.00
2022-11-30T14:00:29.945Z,39.90
2022-11-30T14:06:44.411Z,41.45
2022-11-30T14:09:12.710Z,36.10
2022-11-30T14:11:43.771Z,42.22
2022-11-30T14:17:34.658Z,39.42
2022-11-30T14:20:16.244Z,41.10
2022-11-30T14:25:34.596Z,40.08
2022-11-30T14:28:05.738Z,39.70
2022-11-30T14:30:34.226Z,38.20
2022-11-30T14:36:44.774Z,39.92
2022-11-30T14:39:38.468Z,34.97
2022-11-30T14:42:06.582Z,64.00
2022-11-30T14:44:34.746Z,30.77
2022-11-30T14:47:26.062Z,34.88
2022-11-30T14:49:56.969Z,29.27
2022-11-30T14:52:38.025Z,34.78
2022-11-30T14:55:20.148Z,36.30
2022-11-30T15:00:25.298Z,28.70
2022-11-30T15:02:52.556Z,37.25
2022-11-30T15:05:24.130Z,35.85
2022-11-30T15:08:15.421Z,46.53
2022-11-30T15:10:43.225Z,42.38
2022-11-30T15:13:14.624Z,39.42
2022-11-30T15:15:56.113Z,37.67
2022-11-30T15:21:06.598Z,32.38
2022-11-30T15:26:25.836Z,40.90
2022-11-30T15:29:06.292Z,34.42
2022-11-30T15:31:36.428Z,43.22
2022-11-30T15:34:04.751Z,48.65
2022-11-30T15:36:35.859Z,54.28
2022-11-30T15:39:08.070Z,48.42
2022-11-30T15:41:36.439Z,47.03
2022-11-30T15:44:03.876Z,38.63
2022-11-30T15:46:46.159Z,45.63
2022-11-30T15:49:19.706Z,43.90
2022-11-30T15:51:47.604Z,49.67
2022-11-30T15:54:15.542Z,39.33
2022-11-30T15:56:55.693Z,50.50
2022-11-30T15:59:25.497Z,33.45
2022-11-30T16:02:02.004Z,33.97
2022-11-30T16:04:49.951Z,30.95
2022-11-30T16:07:18.078Z,29.13
2022-11-30T16:09:45.254Z,32.97
2022-11-30T16:12:27.225Z,41.33
2022-11-30T16:14:54.102Z,36.58
2022-11-30T16:17:20.988Z,43.70
2022-11-30T16:19:48.198Z,32.53
2022-11-30T16:22:16.451Z,34.38
2022-11-30T16:24:43.227Z,33.95
2022-11-30T16:27:17.561Z,38.63
2022-11-30T16:29:50.642Z,39.58
2022-11-30T16:32:19.419Z,37.03
2022-11-30T16:37:35.787Z,38.35
2022-11-30T16:40:02.665Z,35.00
2022-11-30T16:43:02.194Z,34.20
2022-11-30T16:45:35.267Z,33.40
2022-11-30T16:50:47.660Z,43.38
2022-11-30T16:53:17.364Z,38.17
2022-11-30T16:55:44.512Z,33.08
2022-11-30T16:58:11.832Z,35.72
2022-11-30T17:00:40.832Z,33.60
2022-11-30T17:03:19.282Z,43.30
2022-11-30T17:05:46.077Z,40.08
2022-11-30T17:08:13.011Z,33.33
2022-11-30T17:10:40.502Z,33.20
2022-11-30T17:13:10.903Z,32.42
2022-11-30T17:15:38.115Z,33.53
2022-11-30T17:18:05.084Z,46.53
2022-11-30T17:20:32.264Z,33.92
2022-11-30T17:22:59.499Z,35.83
2022-11-30T17:25:26.504Z,29.58
2022-11-30T17:27:53.430Z,32.25
2022-11-30T17:30:22.154Z,49.92
2022-11-30T17:32:50.757Z,45.47
2022-11-30T17:35:19.171Z,46.85
2022-11-30T17:37:46.584Z,52.70
2022-11-30T17:40:16.145Z,62.35
2022-11-30T17:42:43.730Z,50.85
2022-11-30T17:45:11.523Z,46.03
2022-11-30T17:47:38.486Z,54.78
2022-11-30T17:50:07.477Z,63.30
2022-11-30T17:52:34.690Z,49.05
2022-11-30T17:55:01.893Z,69.25
2022-11-30T17:57:28.655Z,69.22
2022-11-30T17:59:55.910Z,56.83
2022-11-30T18:02:22.774Z,56.50
2022-11-30T18:04:49.887Z,43.30
2022-11-30T18:07:17.332Z,55.33
2022-11-30T18:09:44.636Z,53.83
2022-11-30T18:12:12.708Z,55.92
2022-11-30T18:14:39.512Z,52.53
2022-11-30T18:17:06.308Z,59.20
2022-11-30T18:19:33.271Z,55.17
2022-11-30T18:22:00.557Z,63.05
2022-11-30T18:24:27.804Z,58.42
2022-11-30T18:26:55.028Z,54.90
2022-11-30T18:29:22.268Z,52.03
2022-11-30T18:31:49.184Z,58.75
2022-11-30T18:34:16.073Z,45.53
2022-11-30T18:36:43.234Z,52.80
2022-11-30T18:39:10.260Z,48.97
2022-11-30T18:41:37.619Z,41.92
2022-11-30T18:44:05.024Z,44.63
2022-11-30T18:46:31.972Z,45.58
2022-11-30T18:48:59.628Z,37.67
2022-11-30T18:51:28.401Z,35.17
2022-11-30T18:53:58.504Z,34.40
2022-11-30T18:56:28.155Z,40.72
2022-11-30T18:58:57.910Z,38.97
2022-11-30T19:01:25.539Z,34.13
2022-11-30T19:03:57.591Z,41.63
2022-11-30T19:06:25.791Z,35.30
2022-11-30T19:08:52.981Z,38.90
2022-11-30T19:11:20.255Z,36.33
2022-11-30T19:13:47.212Z,36.97
2022-11-30T19:16:17.470Z,38.92
2022-11-30T19:18:47.262Z,39.08
2022-11-30T19:21:19.649Z,36.45
2022-11-30T19:23:47.065Z,44.47
2022-11-30T19:26:15.321Z,43.80
2022-11-30T19:28:43.986Z,47.92
2022-11-30T19:31:19.271Z,53.92
2022-11-30T19:33:49.151Z,53.22
2022-11-30T19:36:18.241Z,58.60
2022-11-30T19:38:45.213Z,49.25
2022-11-30T19:41:14.044Z,51.53
2022-11-30T19:43:41.077Z,50.70
2022-11-30T19:46:13.319Z,43.47
2022-11-30T19:48:41.306Z,47.60
2022-11-30T19:51:16.335Z,47.75
2022-11-30T19:53:45.140Z,43.25
2022-11-30T19:56:17.376Z,54.42
2022-11-30T19:58:46.229Z,60.38
2022-11-30T20:01:19.649Z,53.13
2022-11-30T20:03:46.695Z,52.10
2022-11-30T20:06:13.563Z,44.83
2022-11-30T20:08:41.186Z,45.63
2022-11-30T20:11:10.205Z,42.55
2022-11-30T20:13:37.778Z,45.63
2022-11-30T20:16:12.899Z,45.30
2022-11-30T20:18:45.689Z,55.38
2022-11-30T20:21:22.795Z,49.70
2022-11-30T20:23:50.583Z,36.78
2022-11-30T20:26:26.381Z,43.78
2022-11-30T20:28:53.924Z,37.25
2022-11-30T20:31:23.333Z,35.97
2022-11-30T20:33:51.302Z,39.83
2022-11-30T20:36:19.909Z,54.08
2022-11-30T20:38:47.380Z,61.72
2022-11-30T20:41:20.300Z,39.30
2022-11-30T20:43:47.931Z,40.97
2022-11-30T20:46:19.583Z,41.00
2022-11-30T20:48:47.801Z,30.27
2022-11-30T20:51:33.886Z,36.55
2022-11-30T20:54:03.047Z,28.00
2022-11-30T20:56:30.282Z,30.17
2022-11-30T20:59:01.607Z,35.80
2022-11-30T21:01:28.612Z,43.20
2022-11-30T21:03:55.399Z,44.05
2022-11-30T21:06:22.325Z,35.83
2022-11-30T21:08:49.251Z,32.97
2022-11-30T21:11:19.097Z,27.65
2022-11-30T21:13:48.079Z,31.90
2022-11-30T21:16:17.195Z,31.88
2022-11-30T21:18:45.485Z,26.80
2022-11-30T21:21:21.443Z,24.75
2022-11-30T21:23:49.578Z,28.80
2022-11-30T21:26:23.394Z,25.85
2022-11-30T21:28:55.880Z,22.02
2022-11-30T21:31:23.332Z,20.50
2022-11-30T21:33:53.438Z,22.08
2022-11-30T21:36:21.888Z,19.17
2022-11-30T21:39:02.921Z,20.25
2022-11-30T21:41:32.186Z,20.73
2022-11-30T21:43:59.025Z,18.73
2022-11-30T21:46:25.953Z,19.50
2022-11-30T21:48:52.908Z,18.50
2022-11-30T21:51:25.262Z,18.80
2022-11-30T21:53:54.604Z,15.55
2022-11-30T21:56:23.932Z,13.85
2022-11-30T21:58:51.696Z,16.90
2022-11-30T22:01:28.475Z,17.92
2022-11-30T22:03:56.273Z,14.85
2022-11-30T22:06:24.813Z,18.33
2022-11-30T22:08:51.872Z,16.98
2022-11-30T22:11:21.482Z,18.67
2022-11-30T22:13:53.070Z,22.38
2022-11-30T22:16:21.588Z,19.02
2022-11-30T22:18:48.869Z,17.77
2022-11-30T22:21:18.420Z,16.50
2022-11-30T22:23:47.315Z,15.57
2022-11-30T22:26:23.055Z,20.52
2022-11-30T22:29:14.751Z,15.82
2022-11-30T22:31:43.521Z,14.45
2022-11-30T22:34:11.083Z,18.73
2022-11-30T22:36:40.236Z,17.05
2022-11-30T22:39:20.574Z,14.40
2022-11-30T22:41:55.157Z,16.52
2022-11-30T22:44:24.738Z,17.45
2022-11-30T22:46:52.083Z,13.93
2022-11-30T22:49:21.582Z,14.65
2022-11-30T22:51:49.657Z,17.08
2022-11-30T22:54:16.929Z,14.80
2022-11-30T22:56:46.467Z,16.83
2022-11-30T22:59:14.574Z,15.07
2022-11-30T23:01:46.609Z,15.50
2022-11-30T23:04:19.600Z,15.43
2022-11-30T23:06:48.484Z,11.70
2022-11-30T23:09:19.281Z,16.33
2022-11-30T23:11:47.145Z,13.77
2022-11-30T23:14:16.001Z,14.52
2022-11-30T23:16:42.963Z,14.30
2022-11-30T23:19:11.777Z,14.93
2022-11-30T23:21:41.963Z,12.77
2022-11-30T23:24:13.553Z,16.65
2022-11-30T23:26:40.445Z,16.83
2022-11-30T23:29:12.806Z,13.90
2022-11-30T23:31:41.680Z,18.88
2022-11-30T23:34:12.430Z,13.73
2022-11-30T23:36:39.517Z,18.10
2022-11-30T23:39:08.963Z,16.95
2022-11-30T23:41:35.996Z,17.98
2022-11-30T23:44:03.306Z,16.38
2022-11-30T23:46:30.788Z,12.63
2022-11-30T23:48:58.176Z,14.10
2022-11-30T23:51:26.274Z,13.98
2022-11-30T23:53:53.619Z,15.50
2022-11-30T23:56:22.196Z,10.90
2022-11-30T23:58:49.360Z,11.90
